Каракитан

Карта отелей и гостиниц, располагающихся рядом с аэропортом Каракитан :

Каракитан Чувашия 54° 44' 34.08" N, 47° 19' 28.4988" E
Код аэродрома ИКАО
ZEL7
Код аэродрома RU
ЗЕЛ7
Координаты
N54.74280° E047.32458°
Превышение над уровнем моря
200
Основная полоса
06/24
Курс магнитный
059,5/239,5
Длина основной ВПП
400
Ширина основной ВПП
20
Покрытие основной ВПП
Твёрдое (асфальт)
Освещение ВПП
Нет
Тип: 
Аэродром
Класс аэродрома: 
Принадлежность: 
ГА
Статус: 
Недействующий
Сайт: 
E-mail аэродрома: 
Страна: 
Россия
Регион: 
Чувашия
Город: 
Дополнительная информация: 
Бывшая площадка АХР.

Найти трансфер

С помощью этой формы Вы можете найти трансфер из аэропорта Каракитан в город, аэропорт или вокзал:

Карта места

Javascript is required to view this map.

Погода в аэропортах:

Авиационная погода в Гостомеле

Регион: 
Погода METAR: 
UKKM 171330Z AUTO 14002MPS 9999 -DZ ///005/// 07/07 Q1018
Время наблюдения
2021-04-17T13:30:00Z
Температура C
7.0
Точка росы
7.0
Направление ветра
140
Скорость ветра (узлы)
4
Метео видимость
6.21
Явления погоды
-DZ
Условия полета
Аэропорт подробнее: 

Авиационная погода в Угольном

Регион: 
Погода METAR: 
UHMA 171400Z 13011MPS 9999 -SN SCT006 BKN014 BKN022 M00/M01 Q1009 R01/////// NOSIG RMK TDZ R01/13011G15MPS END R01/13014G17MPS QFE753/1004
Время наблюдения
2021-04-17T14:00:00Z
Температура C
0.0
Точка росы
-1.0
Направление ветра
130
Скорость ветра (узлы)
21
Метео видимость
6.21
Явления погоды
-SN
Условия полета
MVFR
Аэропорт подробнее: 

Авиационная погода в аэропорту Новый

Регион: 
Погода METAR: 
UHHH 171330Z 31001MPS 8000 3700NE FU NSC 02/02 Q1012 R23R/090060 NOSIG RMK QFE753/1004
Время наблюдения
2021-04-17T13:30:00Z
Температура C
2.0
Точка росы
2.0
Направление ветра
310
Скорость ветра (узлы)
2
Метео видимость
4.97
Явления погоды
FU
Условия полета
MVFR
Аэропорт подробнее: 

Авиационная погода в Ботсфьорде

Регион: 
Погода METAR: 
ENBS 161920Z 27037G47KT 9999 VCSH SCT020 SCT041 03/01 Q1023
Время наблюдения
2021-04-16T19:20:00Z
Температура C
3.0
Точка росы
1.0
Направление ветра
270
Скорость ветра (узлы)
37
Метео видимость
6.21
Явления погоды
VCSH
Условия полета
VFR